Time;durP1;ratioP1;P1;durP2;ratioP2;P2;SDS_P1;SDS_P2;PMS_P1;PMS_P2;Temp;Humidity;BMP_temperature;BMP_pressure;BME280_temperature;BME280_humidity;BME280_pressure;Samples;Min_cycle;Max_cycle;Signal;HPM_P1;HPM_P2
2023/06/03 00:02:00;;;;;;;0.00;0.00;;;;;;;10.02;67.07;101102.38;6109998;23;20041;-71
2023/06/03 00:04:29;;;;;;;0.10;0.10;;;;;;;10.02;67.61;101097.72;6114401;23;20001;-70
2023/06/03 00:06:55;;;;;;;0.00;0.00;;;;;;;9.94;67.43;101085.28;6108789;23;20016;-72
2023/06/03 00:09:20;;;;;;;0.05;0.05;;;;;;;9.94;67.75;101107.16;6114475;23;20010;-71
2023/06/03 00:11:46;;;;;;;0.00;0.00;;;;;;;9.93;67.88;101105.47;6109615;23;20056;-72
2023/06/03 00:14:11;;;;;;;0.00;0.00;;;;;;;9.91;67.52;101112.25;6112683;23;20021;-70
2023/06/03 00:16:37;;;;;;;0.00;0.00;;;;;;;9.84;67.74;101106.13;6110842;23;20087;-72
2023/06/03 00:19:02;;;;;;;0.00;0.00;;;;;;;9.75;68.16;101097.47;6111352;23;20010;-71
2023/06/03 00:21:28;;;;;;;0.00;0.00;;;;;;;9.72;68.16;101106.16;6088952;23;20044;-72
2023/06/03 00:23:54;;;;;;;0.00;0.00;;;;;;;9.65;68.63;101102.75;6114628;23;20014;-71
2023/06/03 00:26:21;;;;;;;0.05;0.05;;;;;;;9.65;69.33;101102.75;6118442;23;20002;-71
2023/06/03 00:28:48;;;;;;;0.00;0.00;;;;;;;9.56;69.25;101099.56;6118213;23;20620;-72
2023/06/03 00:31:14;;;;;;;0.10;0.10;;;;;;;9.51;69.16;101104.94;6110720;23;20062;-71
2023/06/03 00:33:39;;;;;;;0.00;0.00;;;;;;;9.43;69.51;101100.66;6113097;23;20017;-71
2023/06/03 00:36:05;;;;;;;0.00;0.00;;;;;;;9.36;69.70;101105.44;6107304;23;20085;-71
2023/06/03 00:38:30;;;;;;;0.00;0.00;;;;;;;9.33;69.86;101105.94;6115269;23;20134;-74
2023/06/03 00:40:56;;;;;;;0.00;0.00;;;;;;;9.23;70.51;101091.00;6111222;22;20030;-71
2023/06/03 00:43:21;;;;;;;0.00;0.00;;;;;;;9.24;70.45;101098.13;6111984;23;20099;-73
2023/06/03 00:45:47;;;;;;;0.00;0.00;;;;;;;9.22;71.27;101102.97;6115216;23;20380;-72
2023/06/03 00:48:13;;;;;;;0.00;0.00;;;;;;;9.17;71.23;101102.88;6108848;23;20002;-71
2023/06/03 00:50:39;;;;;;;0.00;0.00;;;;;;;9.09;71.39;101100.53;6113176;23;20009;-71
2023/06/03 00:53:05;;;;;;;0.00;0.00;;;;;;;9.03;71.71;101101.47;6109555;23;20014;-71
2023/06/03 00:55:31;;;;;;;0.00;0.00;;;;;;;8.96;71.61;101095.31;6113309;23;20428;-71
2023/06/03 00:57:57;;;;;;;0.03;0.03;;;;;;;8.93;72.77;101106.72;6109547;23;20002;-71
2023/06/03 01:00:22;;;;;;;0.00;0.00;;;;;;;8.82;72.46;101103.75;6113395;23;20021;-72
2023/06/03 01:02:48;;;;;;;0.00;0.00;;;;;;;8.80;72.42;101105.88;6064451;23;20006;-72
2023/06/03 01:05:15;;;;;;;0.00;0.00;;;;;;;8.72;72.97;101100.78;6108885;23;20116;-72
2023/06/03 01:07:56;;;;;;;0.00;0.00;;;;;;;8.66;73.39;101101.72;6115472;23;20014;-72
2023/06/03 01:10:38;;;;;;;0.00;0.00;;;;;;;8.58;73.54;101091.19;6107943;23;20055;-72
2023/06/03 01:13:14;;;;;;;0.08;0.08;;;;;;;8.55;73.79;101090.56;6112204;23;20002;-71
2023/06/03 01:15:43;;;;;;;0.00;0.00;;;;;;;8.59;74.16;101098.31;6112140;23;20086;-72
2023/06/03 01:18:10;;;;;;;0.00;0.00;;;;;;;8.54;74.39;101097.13;6109867;23;19998;-72
2023/06/03 01:20:36;;;;;;;0.00;0.00;;;;;;;8.56;74.83;101097.69;6108452;23;20013;-72
2023/06/03 01:23:23;;;;;;;0.05;0.05;;;;;;;8.61;74.91;101101.63;6111662;23;20083;-72
2023/06/03 01:25:59;;;;;;;0.00;0.00;;;;;;;8.56;74.87;101092.25;6108383;23;20075;-71
2023/06/03 01:28:27;;;;;;;0.00;0.00;;;;;;;8.51;74.74;101089.41;6109412;23;20063;-71
2023/06/03 01:30:54;;;;;;;0.00;0.00;;;;;;;8.53;75.54;101092.72;6109627;23;20006;-72
2023/06/03 01:33:21;;;;;;;0.00;0.00;;;;;;;8.54;76.07;101099.84;6109372;23;20079;-72
2023/06/03 01:35:48;;;;;;;0.00;0.00;;;;;;;8.51;75.63;101100.31;6113060;23;20013;-72
2023/06/03 01:38:13;;;;;;;0.00;0.00;;;;;;;8.48;76.15;101094.47;6110513;23;20698;-72
2023/06/03 01:40:39;;;;;;;0.00;0.00;;;;;;;8.44;76.03;101093.25;6123020;22;20026;-72
2023/06/03 01:43:05;;;;;;;0.10;0.10;;;;;;;8.46;76.07;101094.72;6139159;23;20006;-71
2023/06/03 01:45:31;;;;;;;0.00;0.00;;;;;;;8.46;76.86;101092.00;6144131;23;20015;-73
2023/06/03 01:47:57;;;;;;;0.00;0.00;;;;;;;8.48;76.80;101089.84;6243805;22;20377;-72
2023/06/03 01:50:23;;;;;;;0.00;0.00;;;;;;;8.45;77.08;101095.78;6143242;23;20442;-72
2023/06/03 01:52:49;;;;;;;0.00;0.00;;;;;;;8.35;77.47;101079.16;6244271;22;20006;-73
2023/06/03 01:55:15;;;;;;;0.00;0.00;;;;;;;8.38;77.28;101079.53;6138756;23;20378;-70
2023/06/03 01:57:41;;;;;;;0.00;0.00;;;;;;;8.40;77.77;101087.47;6239577;22;20097;-72
2023/06/03 02:00:09;;;;;;;0.00;0.00;;;;;;;8.37;78.39;101086.03;6143909;23;20059;-72
2023/06/03 02:02:35;;;;;;;0.00;0.00;;;;;;;8.34;78.34;101088.41;6211663;23;20013;-71
2023/06/03 02:05:01;;;;;;;0.00;0.00;;;;;;;8.30;77.95;101090.75;6115835;23;20018;-72
2023/06/03 02:07:26;;;;;;;0.00;0.00;;;;;;;8.32;78.39;101071.44;6136972;23;20769;-71
2023/06/03 02:09:55;;;;;;;0.00;0.00;;;;;;;8.38;78.64;101073.22;6242437;22;20363;-71
2023/06/03 02:12:23;;;;;;;0.00;0.00;;;;;;;8.38;78.48;101073.22;6136388;23;20648;-72
2023/06/03 02:14:56;;;;;;;0.00;0.00;;;;;;;8.33;78.46;101071.22;6139614;23;20097;-71
2023/06/03 02:17:26;;;;;;;0.00;0.00;;;;;;;8.29;78.66;101070.00;6208546;23;20009;-72
2023/06/03 02:19:52;;;;;;;0.00;0.00;;;;;;;8.23;78.95;101068.22;6238925;22;20002;-72
2023/06/03 02:22:18;;;;;;;0.00;0.00;;;;;;;8.20;78.98;101072.25;6138962;23;20009;-72
2023/06/03 02:24:46;;;;;;;0.00;0.00;;;;;;;8.16;79.28;101056.63;6110550;23;20450;-72
2023/06/03 02:27:14;;;;;;;0.00;0.00;;;;;;;8.13;80.01;101063.38;6141544;23;20396;-71
2023/06/03 02:29:41;;;;;;;0.00;0.00;;;;;;;8.06;79.82;101043.59;6136617;23;20340;-72
2023/06/03 02:32:07;;;;;;;0.00;0.00;;;;;;;8.07;80.06;101042.50;6091623;23;20009;-72
2023/06/03 02:34:32;;;;;;;0.00;0.00;;;;;;;8.13;79.46;101046.19;6239271;22;20436;-71
2023/06/03 02:36:58;;;;;;;0.00;0.00;;;;;;;8.21;80.12;101049.41;6142675;23;20021;-72
2023/06/03 02:39:23;;;;;;;0.00;0.00;;;;;;;8.22;79.46;101042.06;6114635;23;20017;-71
2023/06/03 02:41:49;;;;;;;0.00;0.00;;;;;;;8.23;79.65;101053.78;6083429;23;20033;-71
2023/06/03 02:44:16;;;;;;;0.00;0.00;;;;;;;8.17;80.13;101045.47;6141697;23;20078;-71
2023/06/03 02:46:41;;;;;;;0.00;0.00;;;;;;;8.24;80.54;101042.66;6110564;23;20013;-71
2023/06/03 02:49:08;;;;;;;0.00;0.00;;;;;;;8.22;80.67;101042.06;6142227;23;20474;-71
2023/06/03 02:51:37;;;;;;;0.00;0.00;;;;;;;8.18;80.27;101035.44;6135986;23;19998;-71
2023/06/03 02:54:03;;;;;;;0.00;0.00;;;;;;;8.14;80.73;101040.50;6141483;23;20071;-72
2023/06/03 02:56:28;;;;;;;0.00;0.00;;;;;;;8.08;80.99;101041.44;6244921;22;20432;-71
2023/06/03 02:58:56;;;;;;;0.00;0.00;;;;;;;8.02;80.85;101037.75;6187689;23;20386;-71
2023/06/03 03:01:24;;;;;;;0.00;0.00;;;;;;;8.00;81.21;101033.59;6137977;23;20017;-71
2023/06/03 03:03:49;;;;;;;0.00;0.00;;;;;;;7.95;81.83;101047.09;6136523;23;20005;-72
2023/06/03 03:06:24;;;;;;;0.00;0.00;;;;;;;7.86;81.48;101050.16;6141954;23;20020;-71
2023/06/03 03:08:51;;;;;;;0.00;0.00;;;;;;;7.82;81.99;101046.22;6134652;23;20036;-72
2023/06/03 03:11:17;;;;;;;0.00;0.00;;;;;;;7.71;81.45;101047.06;6141152;23;20432;-72
2023/06/03 03:13:43;;;;;;;0.00;0.00;;;;;;;7.61;81.70;101049.50;6137276;23;20104;-71
2023/06/03 03:16:09;;;;;;;0.00;0.00;;;;;;;7.50;81.68;101040.22;6114230;23;20088;-71
2023/06/03 03:18:35;;;;;;;0.00;0.00;;;;;;;7.42;82.10;101037.81;6137847;23;20029;-72
2023/06/03 03:21:01;;;;;;;0.00;0.00;;;;;;;7.37;83.23;101041.22;6138301;23;20009;-71
2023/06/03 03:23:27;;;;;;;0.00;0.00;;;;;;;7.33;83.46;101040.84;6115304;23;20423;-71
2023/06/03 03:25:53;;;;;;;0.00;0.00;;;;;;;7.26;82.47;101045.56;6085700;23;20021;-72
2023/06/03 03:28:19;;;;;;;0.00;0.00;;;;;;;7.19;82.96;101043.97;6215055;23;20060;-71
2023/06/03 03:30:45;;;;;;;0.00;0.00;;;;;;;7.10;83.04;101036.13;6242077;22;20009;-71
2023/06/03 03:33:15;;;;;;;0.00;0.00;;;;;;;7.11;82.80;101043.22;6142810;23;20485;-71
2023/06/03 03:35:40;;;;;;;0.10;0.10;;;;;;;7.07;83.32;101044.75;6141404;23;20343;-71
2023/06/03 03:38:06;;;;;;;0.00;0.00;;;;;;;7.03;83.96;101051.69;6110333;23;20009;-70
2023/06/03 03:40:35;;;;;;;0.05;0.05;;;;;;;7.01;83.81;101045.66;6141955;22;20026;-71
2023/06/03 03:43:02;;;;;;;0.00;0.00;;;;;;;6.96;83.75;101045.50;6138156;23;20005;-71
2023/06/03 03:45:37;;;;;;;0.00;0.00;;;;;;;7.05;84.20;101046.03;6216699;23;20041;-72
2023/06/03 03:48:05;;;;;;;0.00;0.00;;;;;;;7.03;84.05;101038.09;6242024;22;20056;-72
2023/06/03 03:50:46;;;;;;;0.00;0.00;;;;;;;7.10;84.24;101041.56;6143477;23;20001;-72
2023/06/03 03:53:19;;;;;;;0.00;0.00;;;;;;;7.06;83.62;101040.34;6116557;23;20451;-72
2023/06/03 03:55:47;;;;;;;0.00;0.00;;;;;;;7.02;83.76;101033.69;6116911;23;20098;-72
2023/06/03 03:58:31;;;;;;;0.03;0.03;;;;;;;7.02;83.54;101041.84;6116146;23;20005;-71
2023/06/03 04:01:09;;;;;;;0.00;0.00;;;;;;;7.01;83.54;101042.94;6117272;23;20051;-71
2023/06/03 04:03:40;;;;;;;0.00;0.00;;;;;;;6.99;84.21;101028.72;6138459;23;20641;-72
2023/06/03 04:06:07;;;;;;;0.10;0.10;;;;;;;7.03;84.51;101029.94;6142410;23;20012;-72
2023/06/03 04:08:40;;;;;;;0.00;0.00;;;;;;;7.02;84.14;101039.13;6115872;23;20321;-71
2023/06/03 04:11:23;;;;;;;0.00;0.00;;;;;;;7.01;84.18;101040.22;6117244;23;20019;-72
2023/06/03 04:13:50;;;;;;;0.00;0.00;;;;;;;7.05;84.18;101044.13;6139707;23;20332;-71
2023/06/03 04:16:34;;;;;;;0.00;0.00;;;;;;;6.99;83.88;101039.59;6246980;22;20010;-71
2023/06/03 04:19:03;;;;;;;0.00;0.00;;;;;;;7.02;84.71;101044.56;6138661;23;20008;-72
2023/06/03 04:21:28;;;;;;;0.00;0.00;;;;;;;6.98;84.13;101036.06;6142819;23;20143;-71
2023/06/03 04:23:54;;;;;;;0.00;0.00;;;;;;;7.03;84.14;101040.00;6141621;23;20051;-71
2023/06/03 04:26:20;;;;;;;0.08;0.08;;;;;;;7.09;84.48;101048.06;6143462;23;20014;-71
2023/06/03 04:28:45;;;;;;;0.10;0.10;;;;;;;7.14;85.28;101042.78;6221945;23;20103;-71
2023/06/03 04:31:10;;;;;;;0.00;0.00;;;;;;;7.26;84.88;101036.56;6113706;23;20155;-71
2023/06/03 04:33:36;;;;;;;0.00;0.00;;;;;;;7.31;84.51;101031.25;6093006;23;20009;-72
2023/06/03 04:36:01;;;;;;;0.03;0.03;;;;;;;7.34;84.01;101036.22;6138192;23;20010;-72
2023/06/03 04:38:28;;;;;;;0.00;0.00;;;;;;;7.33;83.98;101040.03;6116181;23;20012;-73
2023/06/03 04:40:54;;;;;;;0.10;0.10;;;;;;;7.34;84.22;101033.50;6182664;22;20028;-72
2023/06/03 04:43:19;;;;;;;0.10;0.10;;;;;;;7.40;84.23;101040.75;6216202;22;20011;-72
2023/06/03 04:45:49;;;;;;;0.00;0.00;;;;;;;7.44;84.47;101035.69;6266856;22;20004;-71
2023/06/03 04:48:15;;;;;;;0.10;0.10;;;;;;;7.53;84.23;101042.47;6264551;22;20640;-72
2023/06/03 04:50:44;;;;;;;0.03;0.03;;;;;;;7.60;83.14;101039.66;6267402;22;20027;-70
2023/06/03 04:53:13;;;;;;;0.00;0.00;;;;;;;7.64;83.35;101038.16;6240299;22;20023;-72
2023/06/03 04:55:43;;;;;;;0.00;0.00;;;;;;;7.69;83.36;101047.28;6236451;22;20099;-71
2023/06/03 04:58:10;;;;;;;0.00;0.00;;;;;;;7.74;83.34;101052.03;6269622;22;20071;-71
2023/06/03 05:00:36;;;;;;;0.00;0.00;;;;;;;7.82;82.44;101054.41;6264682;22;20007;-71
2023/06/03 05:03:08;;;;;;;0.00;0.00;;;;;;;7.87;82.62;101045.56;6241957;22;20446;-71
2023/06/03 05:05:35;;;;;;;0.00;0.00;;;;;;;7.96;83.05;101054.22;6237495;22;20003;-71
2023/06/03 05:08:01;;;;;;;0.00;0.00;;;;;;;8.00;82.53;101047.22;6266856;22;20104;-71
2023/06/03 05:10:27;;;;;;;0.00;0.00;;;;;;;8.11;82.17;101049.16;6237996;22;20372;-71
2023/06/03 05:12:53;;;;;;;0.00;0.00;;;;;;;8.19;82.13;101051.53;6241019;22;20404;-71
2023/06/03 05:15:19;;;;;;;0.00;0.00;;;;;;;8.27;81.97;101044.09;6241714;22;20094;-72
2023/06/03 05:17:44;;;;;;;0.00;0.00;;;;;;;8.34;81.47;101044.81;6262511;22;20038;-71
2023/06/03 05:20:11;;;;;;;0.00;0.00;;;;;;;8.46;80.78;101048.38;6191507;22;20497;-71
2023/06/03 05:22:36;;;;;;;0.00;0.00;;;;;;;8.57;81.40;101046.72;6237025;22;20042;-72
2023/06/03 05:25:05;;;;;;;0.10;0.10;;;;;;;8.67;80.45;101044.25;6238561;22;20015;-72
2023/06/03 05:27:31;;;;;;;0.00;0.00;;;;;;;8.79;79.87;101054.28;6237750;22;20008;-72
2023/06/03 05:29:56;;;;;;;0.00;0.00;;;;;;;8.89;79.90;101052.63;6269659;22;20057;-73
2023/06/03 05:32:22;;;;;;;0.10;0.10;;;;;;;8.96;79.20;101052.50;6265189;22;20625;-72
2023/06/03 05:34:47;;;;;;;0.00;0.00;;;;;;;9.08;79.27;101055.19;6240144;22;20011;-71
2023/06/03 05:37:13;;;;;;;0.00;0.00;;;;;;;9.16;79.15;101062.19;6267728;22;20389;-72
2023/06/03 05:39:39;;;;;;;0.00;0.00;;;;;;;9.23;79.05;101058.25;6236616;22;20090;-72
2023/06/03 05:42:04;;;;;;;0.00;0.00;;;;;;;9.36;78.45;101061.75;6069257;22;20106;-72
2023/06/03 05:44:30;;;;;;;0.00;0.00;;;;;;;9.43;78.23;101073.38;6083224;23;20030;-71
2023/06/03 05:46:55;;;;;;;0.00;0.00;;;;;;;9.44;77.95;101053.19;6064521;23;20435;-73
2023/06/03 05:49:21;;;;;;;0.00;0.00;;;;;;;9.53;78.05;101059.91;6085447;23;20065;-71
2023/06/03 05:51:46;;;;;;;0.00;0.00;;;;;;;9.63;77.50;101061.22;6109757;23;20010;-71
2023/06/03 05:54:13;;;;;;;0.00;0.00;;;;;;;9.74;76.78;101063.06;6063502;23;20249;-72
2023/06/03 05:56:38;;;;;;;0.00;0.00;;;;;;;9.85;76.60;101064.06;6084835;23;20009;-70
2023/06/03 05:59:04;;;;;;;0.00;0.00;;;;;;;9.99;76.33;101075.50;6084744;23;20009;-74
2023/06/03 06:01:32;;;;;;;0.00;0.00;;;;;;;10.07;76.26;101077.84;6086053;23;20085;-73
2023/06/03 06:03:58;;;;;;;0.00;0.00;;;;;;;10.13;76.44;101074.97;6083994;23;20432;-74
2023/06/03 06:06:26;;;;;;;0.00;0.00;;;;;;;10.26;75.55;101076.53;6113991;23;20006;-73
2023/06/03 06:08:51;;;;;;;0.00;0.00;;;;;;;10.29;75.55;101059.66;6084744;23;20018;-73
2023/06/03 06:11:17;;;;;;;0.00;0.00;;;;;;;10.48;75.11;101078.53;6061590;23;20017;-72
2023/06/03 06:13:42;;;;;;;0.00;0.00;;;;;;;10.59;75.27;101065.88;6083679;23;20045;-70
2023/06/03 06:16:08;;;;;;;0.00;0.00;;;;;;;10.72;74.15;101062.78;6111939;23;20040;-70
2023/06/03 06:18:34;;;;;;;0.00;0.00;;;;;;;10.85;74.45;101061.59;6085736;23;20401;-70
2023/06/03 06:20:59;;;;;;;0.03;0.03;;;;;;;11.07;73.51;101071.72;6083842;23;20464;-71
2023/06/03 06:23:25;;;;;;;0.00;0.00;;;;;;;11.21;72.73;101075.75;6113012;23;20014;-70
2023/06/03 06:25:53;;;;;;;0.00;0.00;;;;;;;11.46;72.31;101067.03;6107937;23;20037;-71
2023/06/03 06:28:21;;;;;;;0.00;0.00;;;;;;;11.49;71.84;101072.00;6113370;23;20045;-71
2023/06/03 06:30:47;;;;;;;0.00;0.00;;;;;;;11.59;71.43;101065.78;6106577;23;20380;-71
2023/06/03 06:33:16;;;;;;;0.00;0.00;;;;;;;11.71;71.00;101073.88;6085257;23;20013;-70
2023/06/03 06:35:42;;;;;;;0.00;0.00;;;;;;;11.90;70.13;101077.09;6113048;23;20056;-70
2023/06/03 06:38:08;;;;;;;0.00;0.00;;;;;;;11.97;70.00;101066.78;6109110;23;20425;-71
2023/06/03 06:40:34;;;;;;;0.00;0.00;;;;;;;12.13;69.95;101075.13;6121268;22;20108;-71
2023/06/03 06:43:03;;;;;;;0.00;0.00;;;;;;;12.21;69.34;101071.91;6137308;23;20118;-72
2023/06/03 06:45:30;;;;;;;0.00;0.00;;;;;;;12.31;68.51;101077.47;6141811;23;20443;-71
2023/06/03 06:48:06;;;;;;;0.00;0.00;;;;;;;12.38;68.31;101072.59;6111061;23;20018;-71
2023/06/03 06:50:54;;;;;;;0.00;0.00;;;;;;;12.48;68.34;101077.31;6138414;23;20377;-71
2023/06/03 06:53:20;;;;;;;0.00;0.00;;;;;;;12.59;68.34;101078.25;6110461;23;20010;-71
2023/06/03 06:55:52;;;;;;;0.00;0.00;;;;;;;12.73;67.79;101067.63;6139610;23;20082;-70
2023/06/03 06:58:18;;;;;;;0.00;0.00;;;;;;;12.82;67.37;101059.72;6138621;23;20008;-71
2023/06/03 07:00:44;;;;;;;0.00;0.00;;;;;;;12.88;67.44;101070.47;6109287;23;20416;-71
2023/06/03 07:03:15;;;;;;;0.00;0.00;;;;;;;12.92;67.67;101073.50;6112621;23;20082;-71
2023/06/03 07:05:41;;;;;;;0.00;0.00;;;;;;;13.01;67.03;101073.81;6108974;23;20006;-71
2023/06/03 07:08:07;;;;;;;0.00;0.00;;;;;;;13.17;67.16;101088.44;6139202;23;20012;-71
2023/06/03 07:10:33;;;;;;;0.00;0.00;;;;;;;13.29;66.41;101089.06;6137324;23;20029;-71
2023/06/03 07:12:58;;;;;;;0.00;0.00;;;;;;;13.36;66.59;101084.19;6112896;23;20079;-72
2023/06/03 07:15:24;;;;;;;0.00;0.00;;;;;;;13.43;66.31;101082.03;6106996;23;20010;-71
2023/06/03 07:17:54;;;;;;;0.00;0.00;;;;;;;13.49;66.43;101079.28;6137297;23;20009;-71
2023/06/03 07:20:41;;;;;;;0.00;0.00;;;;;;;13.59;65.87;101071.06;6139456;23;20065;-70
2023/06/03 07:23:19;;;;;;;0.00;0.00;;;;;;;13.69;66.07;101079.34;6136830;22;20006;-71
2023/06/03 07:25:50;;;;;;;0.00;0.00;;;;;;;13.82;65.47;101082.69;6108237;23;20013;-71
2023/06/03 07:28:17;;;;;;;0.00;0.00;;;;;;;13.92;64.99;101090.94;6087019;23;20095;-71
2023/06/03 07:30:44;;;;;;;0.00;0.00;;;;;;;14.05;64.63;101090.41;6114027;23;20351;-71
2023/06/03 07:33:20;;;;;;;0.00;0.00;;;;;;;14.19;64.42;101087.94;6114817;23;20047;-70
2023/06/03 07:35:45;;;;;;;0.00;0.00;;;;;;;14.26;63.99;101087.66;6137858;23;20454;-70
2023/06/03 07:38:23;;;;;;;0.00;0.00;;;;;;;14.34;63.85;101089.88;6139994;23;19997;-71
2023/06/03 07:40:48;;;;;;;0.00;0.00;;;;;;;14.44;63.73;101098.13;6139897;22;20471;-71
2023/06/03 07:43:13;;;;;;;0.00;0.00;;;;;;;14.46;63.32;101084.91;6112783;23;20005;-71
2023/06/03 07:45:39;;;;;;;0.00;0.00;;;;;;;14.60;63.30;101093.44;6142062;23;20466;-71
2023/06/03 07:48:08;;;;;;;0.00;0.00;;;;;;;14.71;62.84;101088.78;6217269;23;20025;-70
2023/06/03 07:50:33;;;;;;;0.00;0.00;;;;;;;14.82;62.18;101095.91;6141023;23;20088;-72
2023/06/03 07:53:01;;;;;;;0.00;0.00;;;;;;;14.96;62.20;101098.09;6118708;23;20060;-73
2023/06/03 07:55:44;;;;;;;0.00;0.00;;;;;;;15.05;61.73;101090.09;6112259;23;20015;-71
2023/06/03 07:58:10;;;;;;;0.00;0.00;;;;;;;15.22;61.34;101098.84;6115702;23;20012;-71
2023/06/03 08:00:38;;;;;;;0.00;0.00;;;;;;;15.32;61.08;101095.22;6112214;23;20016;-72
2023/06/03 08:03:06;;;;;;;0.00;0.00;;;;;;;15.40;61.07;101093.81;6241087;22;20046;-71
2023/06/03 08:05:36;;;;;;;0.00;0.00;;;;;;;15.48;60.32;101107.84;6139503;23;20009;-72
2023/06/03 08:08:05;;;;;;;0.00;0.00;;;;;;;15.61;60.10;101111.06;6116152;23;20010;-70
2023/06/03 08:10:33;;;;;;;0.00;0.00;;;;;;;15.67;59.34;101104.44;6136921;23;20013;-70
2023/06/03 08:13:00;;;;;;;0.00;0.00;;;;;;;15.87;59.26;101120.06;6142559;23;20012;-70
2023/06/03 08:15:27;;;;;;;0.00;0.00;;;;;;;15.87;58.90;101120.06;6089830;23;20009;-68
2023/06/03 08:17:53;;;;;;;0.00;0.00;;;;;;;15.86;58.70;101119.25;6145217;23;20450;-69
2023/06/03 08:20:28;;;;;;;0.00;0.00;;;;;;;15.86;58.32;101112.91;6146853;23;20009;-70
2023/06/03 08:22:55;;;;;;;0.00;0.00;;;;;;;15.87;58.54;101115.38;6144870;23;20002;-71
2023/06/03 08:25:23;;;;;;;0.00;0.00;;;;;;;15.96;58.68;101117.53;6146936;23;20036;-69
2023/06/03 08:27:49;;;;;;;0.00;0.00;;;;;;;16.04;58.57;101114.97;6218406;23;20014;-70
2023/06/03 08:30:16;;;;;;;0.00;0.00;;;;;;;16.20;58.31;101112.13;6146152;23;20010;-71
2023/06/03 08:32:44;;;;;;;0.00;0.00;;;;;;;16.26;57.99;101104.66;6139946;23;20593;-71
2023/06/03 08:35:12;;;;;;;0.00;0.00;;;;;;;16.29;57.58;101115.09;6218535;23;20571;-71
2023/06/03 08:37:37;;;;;;;0.00;0.00;;;;;;;16.28;57.36;101113.44;6138974;23;20074;-73
2023/06/03 08:40:07;;;;;;;0.00;0.00;;;;;;;16.35;56.78;101116.72;6091154;22;20009;-73
2023/06/03 08:42:39;;;;;;;0.00;0.00;;;;;;;16.39;57.02;101109.50;6143425;23;20085;-72
2023/06/03 08:45:07;;;;;;;0.00;0.00;;;;;;;16.44;56.66;101105.88;6117715;23;20012;-70
2023/06/03 08:48:00;;;;;;;0.00;0.00;;;;;;;16.46;56.02;101115.50;6248474;22;20039;-71
2023/06/03 08:50:27;;;;;;;0.00;0.00;;;;;;;16.45;55.74;101111.09;6116870;23;20473;-70
2023/06/03 08:52:53;;;;;;;0.00;0.00;;;;;;;16.50;55.96;101105.56;6144493;23;20040;-71
2023/06/03 08:55:20;;;;;;;0.00;0.00;;;;;;;16.62;55.94;101104.31;6089509;23;20010;-70
2023/06/03 08:57:56;;;;;;;0.00;0.00;;;;;;;16.82;55.79;101109.69;6119201;23;20076;-71
2023/06/03 09:00:24;;;;;;;0.00;0.00;;;;;;;17.10;55.19;101107.19;6139106;23;20002;-72
2023/06/03 09:02:51;;;;;;;0.00;0.00;;;;;;;17.27;54.46;101099.25;6117003;23;20013;-70
2023/06/03 09:05:17;;;;;;;0.00;0.00;;;;;;;17.43;54.79;101112.88;6139380;23;20005;-70
2023/06/03 09:07:44;;;;;;;0.00;0.00;;;;;;;17.49;54.58;101102.59;6145663;23;20085;-71
2023/06/03 09:10:11;;;;;;;0.00;0.00;;;;;;;17.62;53.62;101112.91;6117277;23;20017;-71
2023/06/03 09:12:37;;;;;;;0.00;0.00;;;;;;;17.58;53.04;101101.63;6141090;23;20053;-72
2023/06/03 09:15:04;;;;;;;0.00;0.00;;;;;;;17.49;53.28;101108.94;6116487;23;20005;-73
2023/06/03 09:17:29;;;;;;;0.00;0.00;;;;;;;17.51;53.55;101095.66;6240363;22;20085;-70
2023/06/03 09:19:59;;;;;;;0.00;0.00;;;;;;;17.72;53.38;101107.25;6245038;22;20830;-70
2023/06/03 09:22:26;;;;;;;0.00;0.00;;;;;;;17.84;52.60;101101.25;6139361;23;20013;-70
2023/06/03 09:24:51;;;;;;;0.00;0.00;;;;;;;17.90;52.14;101102.88;6144892;23;20006;-69
2023/06/03 09:27:17;;;;;;;0.00;0.00;;;;;;;17.99;52.64;101094.75;6141048;23;20010;-72
2023/06/03 09:29:42;;;;;;;0.00;0.00;;;;;;;18.03;51.56;101100.47;6115917;23;20013;-71
2023/06/03 09:32:08;;;;;;;0.00;0.00;;;;;;;17.99;51.59;101100.28;6144423;23;20017;-71
2023/06/03 09:34:35;;;;;;;0.00;0.00;;;;;;;17.95;52.22;101088.97;6140592;23;20517;-70
2023/06/03 09:37:08;;;;;;;0.00;0.00;;;;;;;18.17;51.92;101098.59;6120105;23;20033;-70
2023/06/03 09:39:34;;;;;;;0.00;0.00;;;;;;;18.39;51.57;101091.63;6140976;23;20013;-70
2023/06/03 09:42:00;;;;;;;0.00;0.00;;;;;;;18.51;50.99;101085.59;6238322;22;20026;-70
2023/06/03 09:44:48;;;;;;;0.00;0.00;;;;;;;18.68;50.57;101085.84;6112989;23;20089;-72
2023/06/03 09:47:14;;;;;;;0.00;0.00;;;;;;;18.88;50.54;101094.91;6088572;23;20006;-74
2023/06/03 09:50:04;;;;;;;0.00;0.00;;;;;;;19.18;49.76;101090.75;6085528;23;20101;-73
2023/06/03 09:52:36;;;;;;;0.00;0.00;;;;;;;19.41;48.97;101099.16;6115578;23;20081;-75
2023/06/03 09:55:03;;;;;;;0.00;0.00;;;;;;;19.56;48.13;101101.59;6086885;23;20022;-74
2023/06/03 09:57:28;;;;;;;0.00;0.00;;;;;;;19.78;48.28;101088.91;6091169;23;20014;-75
2023/06/03 10:00:07;;;;;;;0.00;0.00;;;;;;;20.34;46.92;101087.63;6065332;23;20406;-74
2023/06/03 10:02:34;;;;;;;0.00;0.00;;;;;;;21.75;43.76;101083.47;6089201;23;20013;-74
2023/06/03 10:05:00;;;;;;;0.00;0.00;;;;;;;24.54;38.92;101083.34;6113385;23;20337;-74
2023/06/03 10:07:26;;;;;;;0.00;0.00;;;;;;;27.85;33.89;101092.03;6086208;23;20428;-73
2023/06/03 10:10:03;;;;;;;0.00;0.00;;;;;;;31.44;29.54;101078.63;6067215;23;20013;-73
2023/06/03 10:12:30;;;;;;;0.00;0.00;;;;;;;33.76;25.83;101092.00;6113780;23;20006;-74
2023/06/03 10:14:58;;;;;;;0.00;0.00;;;;;;;35.10;22.47;101095.69;6092483;23;20079;-73
2023/06/03 10:17:24;;;;;;;0.00;0.00;;;;;;;36.34;21.75;101091.06;6214528;22;20013;-73
2023/06/03 10:19:49;;;;;;;0.00;0.00;;;;;;;37.94;19.68;101095.66;6116861;23;20312;-73
2023/06/03 10:22:18;;;;;;;0.00;0.00;;;;;;;38.83;19.12;101091.19;6210217;22;20391;-73
2023/06/03 10:24:45;;;;;;;0.00;0.00;;;;;;;40.31;18.77;101087.91;6113980;23;20006;-75
2023/06/03 10:27:12;;;;;;;0.00;0.00;;;;;;;41.67;16.11;101093.13;6086174;23;20009;-74
2023/06/03 10:29:38;;;;;;;0.00;0.00;;;;;;;42.64;16.71;101088.56;6058837;23;20010;-73
2023/06/03 10:32:09;;;;;;;0.00;0.00;;;;;;;43.74;15.10;101087.06;6112667;23;20462;-75
2023/06/03 10:34:41;;;;;;;0.00;0.00;;;;;;;44.42;14.80;101080.97;6085171;23;20033;-76
2023/06/03 10:37:09;;;;;;;0.00;0.00;;;;;;;45.47;13.12;101078.50;6114282;23;20485;-74
2023/06/03 10:39:36;;;;;;;0.00;0.00;;;;;;;45.00;12.95;101077.25;6110580;23;20488;-75
2023/06/03 10:42:06;;;;;;;0.00;0.00;;;;;;;45.39;12.98;101083.03;6140545;22;20088;-74
2023/06/03 10:44:32;;;;;;;0.00;0.00;;;;;;;45.71;12.96;101080.50;6113060;23;20009;-75
2023/06/03 10:47:21;;;;;;;0.00;0.00;;;;;;;46.93;12.69;101078.50;6248053;22;20005;-74
2023/06/03 10:49:53;;;;;;;0.00;0.00;;;;;;;47.76;11.80;101077.09;6114326;23;20316;-74
2023/06/03 10:52:34;;;;;;;0.00;0.00;;;;;;;48.42;12.09;101081.00;6145152;23;20324;-74
2023/06/03 10:55:14;;;;;;;0.00;0.00;;;;;;;49.59;11.49;101077.56;6141281;23;20029;-75
2023/06/03 10:57:46;;;;;;;0.00;0.00;;;;;;;49.90;10.35;101075.72;6117576;23;20385;-75
2023/06/03 11:00:12;;;;;;;0.00;0.00;;;;;;;50.12;10.08;101067.03;6115563;23;20006;-73
2023/06/03 11:03:06;;;;;;;0.00;0.00;;;;;;;50.45;9.23;101074.09;6144410;23;20093;-75
2023/06/03 11:05:33;;;;;;;0.00;0.00;;;;;;;50.56;9.79;101069.56;6137326;23;20336;-74
2023/06/03 11:07:59;;;;;;;0.00;0.00;;;;;;;51.24;9.57;101072.22;6116744;23;20085;-74
2023/06/03 11:10:35;;;;;;;0.00;0.00;;;;;;;51.38;9.22;101062.34;6114328;23;20472;-75
2023/06/03 11:13:01;;;;;;;0.00;0.00;;;;;;;51.83;8.89;101062.03;6144589;22;20002;-75
2023/06/03 11:15:59;;;;;;;0.00;0.00;;;;;;;52.19;8.70;101053.22;6087942;23;20016;-74
2023/06/03 11:18:25;;;;;;;0.00;0.00;;;;;;;52.68;8.56;101054.53;6118070;23;20493;-75
2023/06/03 11:20:50;;;;;;;0.00;0.00;;;;;;;51.98;8.08;101052.06;6141296;23;20005;-74
2023/06/03 11:23:40;;;;;;;0.00;0.00;;;;;;;52.46;8.38;101058.50;6092665;23;20013;-74
2023/06/03 11:26:32;;;;;;;0.00;0.00;;;;;;;53.01;8.28;101050.38;6115653;23;20009;-75
2023/06/03 11:28:57;;;;;;;0.00;0.00;;;;;;;53.38;7.91;101048.00;6116829;23;20030;-75
2023/06/03 11:31:24;;;;;;;0.00;0.00;;;;;;;52.96;7.66;101054.16;6245414;22;20089;-75
2023/06/03 11:34:25;;;;;;;0.00;0.00;;;;;;;52.16;8.23;101042.63;6143516;23;20004;-74
2023/06/03 11:36:52;;;;;;;0.00;0.00;;;;;;;52.81;8.09;101051.72;6144842;23;19998;-75